sensor_id;sensor_type;location;lat;lon;timestamp;temperature;humidity
32877;DHT22;19226;51.600;8.034;2023-04-29T00:01:49;13.20;99.90
32877;DHT22;19226;51.600;8.034;2023-04-29T00:04:34;13.20;99.90
32877;DHT22;19226;51.600;8.034;2023-04-29T00:07:19;13.20;99.90
32877;DHT22;19226;51.600;8.034;2023-04-29T00:10:04;13.10;99.90
32877;DHT22;19226;51.600;8.034;2023-04-29T00:12:49;13.20;99.90
32877;DHT22;19226;51.600;8.034;2023-04-29T00:15:34;13.10;99.90
32877;DHT22;19226;51.600;8.034;2023-04-29T00:18:20;13.10;99.90
32877;DHT22;19226;51.600;8.034;2023-04-29T00:21:05;13.10;99.90
32877;DHT22;19226;51.600;8.034;2023-04-29T00:23:49;13.00;99.90
32877;DHT22;19226;51.600;8.034;2023-04-29T00:26:34;13.10;99.90
32877;DHT22;19226;51.600;8.034;2023-04-29T00:29:18;13.10;99.90
32877;DHT22;19226;51.600;8.034;2023-04-29T00:32:04;13.00;99.90
32877;DHT22;19226;51.600;8.034;2023-04-29T00:34:48;13.00;99.90
32877;DHT22;19226;51.600;8.034;2023-04-29T00:37:33;13.00;99.90
32877;DHT22;19226;51.600;8.034;2023-04-29T00:40:18;13.00;99.90
32877;DHT22;19226;51.600;8.034;2023-04-29T00:43:02;12.90;99.90
32877;DHT22;19226;51.600;8.034;2023-04-29T00:45:47;12.90;99.90
32877;DHT22;19226;51.600;8.034;2023-04-29T00:48:32;12.80;99.90
32877;DHT22;19226;51.600;8.034;2023-04-29T00:51:17;12.80;99.90
32877;DHT22;19226;51.600;8.034;2023-04-29T00:54:05;12.80;99.90
32877;DHT22;19226;51.600;8.034;2023-04-29T00:56:51;12.80;99.90
32877;DHT22;19226;51.600;8.034;2023-04-29T00:59:36;12.80;99.90
32877;DHT22;19226;51.600;8.034;2023-04-29T01:02:21;12.80;99.90
32877;DHT22;19226;51.600;8.034;2023-04-29T01:05:07;12.70;99.90
32877;DHT22;19226;51.600;8.034;2023-04-29T01:11:04;12.70;99.90
32877;DHT22;19226;51.600;8.034;2023-04-29T01:13:58;12.60;99.90
32877;DHT22;19226;51.600;8.034;2023-04-29T01:16:50;12.60;99.90
32877;DHT22;19226;51.600;8.034;2023-04-29T01:19:54;12.60;99.90
32877;DHT22;19226;51.600;8.034;2023-04-29T01:22:41;12.60;99.90
32877;DHT22;19226;51.600;8.034;2023-04-29T01:25:26;12.50;99.90
32877;DHT22;19226;51.600;8.034;2023-04-29T01:28:45;12.50;99.90
32877;DHT22;19226;51.600;8.034;2023-04-29T01:37:32;12.40;99.90
32877;DHT22;19226;51.600;8.034;2023-04-29T01:40:25;12.40;99.90
32877;DHT22;19226;51.600;8.034;2023-04-29T01:43:29;12.30;99.90
32877;DHT22;19226;51.600;8.034;2023-04-29T01:46:16;12.30;99.90
32877;DHT22;19226;51.600;8.034;2023-04-29T01:49:02;12.30;99.90
32877;DHT22;19226;51.600;8.034;2023-04-29T01:51:46;12.30;99.90
32877;DHT22;19226;51.600;8.034;2023-04-29T01:54:31;12.30;99.90
32877;DHT22;19226;51.600;8.034;2023-04-29T01:57:20;12.30;99.90
32877;DHT22;19226;51.600;8.034;2023-04-29T02:00:16;12.20;99.90
32877;DHT22;19226;51.600;8.034;2023-04-29T02:03:07;12.20;99.90
32877;DHT22;19226;51.600;8.034;2023-04-29T02:05:57;12.30;99.90
32877;DHT22;19226;51.600;8.034;2023-04-29T02:08:42;12.30;99.90
32877;DHT22;19226;51.600;8.034;2023-04-29T02:11:27;12.30;99.90
32877;DHT22;19226;51.600;8.034;2023-04-29T02:14:14;12.20;99.90
32877;DHT22;19226;51.600;8.034;2023-04-29T02:16:58;12.20;99.90
32877;DHT22;19226;51.600;8.034;2023-04-29T02:19:43;12.20;99.90
32877;DHT22;19226;51.600;8.034;2023-04-29T02:22:28;12.20;99.90
32877;DHT22;19226;51.600;8.034;2023-04-29T02:25:14;12.20;99.90
32877;DHT22;19226;51.600;8.034;2023-04-29T02:27:59;12.20;99.90
32877;DHT22;19226;51.600;8.034;2023-04-29T02:30:43;12.10;99.90
32877;DHT22;19226;51.600;8.034;2023-04-29T02:33:28;12.10;99.90
32877;DHT22;19226;51.600;8.034;2023-04-29T02:36:12;12.10;99.90
32877;DHT22;19226;51.600;8.034;2023-04-29T02:38:57;12.10;99.90
32877;DHT22;19226;51.600;8.034;2023-04-29T02:41:43;12.00;99.90
32877;DHT22;19226;51.600;8.034;2023-04-29T02:44:28;11.80;99.90
32877;DHT22;19226;51.600;8.034;2023-04-29T02:47:15;11.80;99.90
32877;DHT22;19226;51.600;8.034;2023-04-29T02:49:59;11.80;99.90
32877;DHT22;19226;51.600;8.034;2023-04-29T02:52:44;11.70;99.90
32877;DHT22;19226;51.600;8.034;2023-04-29T02:55:29;11.70;99.90
32877;DHT22;19226;51.600;8.034;2023-04-29T02:58:19;11.70;99.90
32877;DHT22;19226;51.600;8.034;2023-04-29T03:01:03;11.60;99.90
32877;DHT22;19226;51.600;8.034;2023-04-29T03:03:48;11.50;99.90
32877;DHT22;19226;51.600;8.034;2023-04-29T03:06:33;11.60;99.90
32877;DHT22;19226;51.600;8.034;2023-04-29T03:09:17;11.60;99.90
32877;DHT22;19226;51.600;8.034;2023-04-29T03:12:04;11.60;99.90
32877;DHT22;19226;51.600;8.034;2023-04-29T03:14:48;11.50;99.90
32877;DHT22;19226;51.600;8.034;2023-04-29T03:17:33;11.50;99.90
32877;DHT22;19226;51.600;8.034;2023-04-29T03:20:18;11.50;99.90
32877;DHT22;19226;51.600;8.034;2023-04-29T03:23:02;11.50;99.90
32877;DHT22;19226;51.600;8.034;2023-04-29T03:25:47;11.50;99.90
32877;DHT22;19226;51.600;8.034;2023-04-29T03:28:32;11.50;99.90
32877;DHT22;19226;51.600;8.034;2023-04-29T03:31:16;11.40;99.90
32877;DHT22;19226;51.600;8.034;2023-04-29T03:34:03;11.40;99.90
32877;DHT22;19226;51.600;8.034;2023-04-29T03:36:51;11.30;99.90
32877;DHT22;19226;51.600;8.034;2023-04-29T03:39:36;11.30;99.90
32877;DHT22;19226;51.600;8.034;2023-04-29T03:42:21;11.30;99.90
32877;DHT22;19226;51.600;8.034;2023-04-29T03:45:06;11.30;99.90
32877;DHT22;19226;51.600;8.034;2023-04-29T03:47:50;11.30;99.90
32877;DHT22;19226;51.600;8.034;2023-04-29T03:50:37;11.30;99.90
32877;DHT22;19226;51.600;8.034;2023-04-29T03:53:21;11.30;99.90
32877;DHT22;19226;51.600;8.034;2023-04-29T03:56:06;11.20;99.90
32877;DHT22;19226;51.600;8.034;2023-04-29T03:58:52;11.20;99.90
32877;DHT22;19226;51.600;8.034;2023-04-29T04:01:38;11.20;99.90
32877;DHT22;19226;51.600;8.034;2023-04-29T04:04:24;11.10;99.90
32877;DHT22;19226;51.600;8.034;2023-04-29T04:07:09;11.10;99.90
32877;DHT22;19226;51.600;8.034;2023-04-29T04:10:14;11.20;99.90
32877;DHT22;19226;51.600;8.034;2023-04-29T04:12:59;11.20;99.90
32877;DHT22;19226;51.600;8.034;2023-04-29T04:15:49;11.20;99.90
32877;DHT22;19226;51.600;8.034;2023-04-29T04:18:34;11.20;99.90
32877;DHT22;19226;51.600;8.034;2023-04-29T04:21:19;11.10;99.90
32877;DHT22;19226;51.600;8.034;2023-04-29T04:24:15;11.10;99.90
32877;DHT22;19226;51.600;8.034;2023-04-29T04:27:00;11.00;99.90
32877;DHT22;19226;51.600;8.034;2023-04-29T04:29:53;11.00;99.90
32877;DHT22;19226;51.600;8.034;2023-04-29T04:32:43;11.00;99.90
32877;DHT22;19226;51.600;8.034;2023-04-29T04:35:28;11.00;99.90
32877;DHT22;19226;51.600;8.034;2023-04-29T04:38:13;11.10;99.90
32877;DHT22;19226;51.600;8.034;2023-04-29T04:40:58;11.10;99.90
32877;DHT22;19226;51.600;8.034;2023-04-29T04:43:50;11.00;99.90
32877;DHT22;19226;51.600;8.034;2023-04-29T04:46:47;11.00;99.90
32877;DHT22;19226;51.600;8.034;2023-04-29T04:49:51;11.00;99.90
32877;DHT22;19226;51.600;8.034;2023-04-29T04:52:36;11.00;99.90
32877;DHT22;19226;51.600;8.034;2023-04-29T04:55:33;11.10;99.90
32877;DHT22;19226;51.600;8.034;2023-04-29T04:58:18;11.00;99.90
32877;DHT22;19226;51.600;8.034;2023-04-29T05:01:03;10.90;99.90
32877;DHT22;19226;51.600;8.034;2023-04-29T05:03:48;10.90;99.90
32877;DHT22;19226;51.600;8.034;2023-04-29T05:06:32;10.90;99.90
32877;DHT22;19226;51.600;8.034;2023-04-29T05:09:17;10.90;99.90
32877;DHT22;19226;51.600;8.034;2023-04-29T05:12:03;10.90;99.90
32877;DHT22;19226;51.600;8.034;2023-04-29T05:14:53;10.90;99.90
32877;DHT22;19226;51.600;8.034;2023-04-29T05:17:37;10.90;99.90
32877;DHT22;19226;51.600;8.034;2023-04-29T05:20:22;10.90;99.90
32877;DHT22;19226;51.600;8.034;2023-04-29T05:23:06;10.90;99.90
32877;DHT22;19226;51.600;8.034;2023-04-29T05:25:56;11.00;99.90
32877;DHT22;19226;51.600;8.034;2023-04-29T05:28:40;10.90;99.90
32877;DHT22;19226;51.600;8.034;2023-04-29T05:31:26;10.90;99.90
32877;DHT22;19226;51.600;8.034;2023-04-29T05:34:13;10.90;99.90
32877;DHT22;19226;51.600;8.034;2023-04-29T05:36:57;10.90;99.90
32877;DHT22;19226;51.600;8.034;2023-04-29T05:39:42;10.90;99.90
32877;DHT22;19226;51.600;8.034;2023-04-29T05:42:31;11.00;99.90
32877;DHT22;19226;51.600;8.034;2023-04-29T05:45:16;11.00;99.90
32877;DHT22;19226;51.600;8.034;2023-04-29T05:48:01;11.00;99.90
32877;DHT22;19226;51.600;8.034;2023-04-29T05:50:45;11.00;99.90
32877;DHT22;19226;51.600;8.034;2023-04-29T05:53:31;11.00;99.90
32877;DHT22;19226;51.600;8.034;2023-04-29T05:56:17;11.10;99.90
32877;DHT22;19226;51.600;8.034;2023-04-29T05:59:02;11.00;99.90
32877;DHT22;19226;51.600;8.034;2023-04-29T06:01:47;11.10;99.90
32877;DHT22;19226;51.600;8.034;2023-04-29T06:04:31;11.10;99.90
32877;DHT22;19226;51.600;8.034;2023-04-29T06:07:22;11.00;99.90
32877;DHT22;19226;51.600;8.034;2023-04-29T06:10:26;11.00;99.90
32877;DHT22;19226;51.600;8.034;2023-04-29T06:13:11;10.90;99.90
32877;DHT22;19226;51.600;8.034;2023-04-29T06:15:55;10.90;99.90
32877;DHT22;19226;51.600;8.034;2023-04-29T06:18:41;10.90;99.90
32877;DHT22;19226;51.600;8.034;2023-04-29T06:21:25;11.00;99.90
32877;DHT22;19226;51.600;8.034;2023-04-29T06:24:11;11.00;99.90
32877;DHT22;19226;51.600;8.034;2023-04-29T06:26:55;10.90;99.90
32877;DHT22;19226;51.600;8.034;2023-04-29T06:29:41;10.90;99.90
32877;DHT22;19226;51.600;8.034;2023-04-29T06:32:26;10.90;99.90
32877;DHT22;19226;51.600;8.034;2023-04-29T06:35:10;11.00;99.90
32877;DHT22;19226;51.600;8.034;2023-04-29T06:38:10;11.00;99.90
32877;DHT22;19226;51.600;8.034;2023-04-29T06:41:17;11.00;99.90
32877;DHT22;19226;51.600;8.034;2023-04-29T06:44:21;11.10;99.90
32877;DHT22;19226;51.600;8.034;2023-04-29T06:47:28;11.00;99.90
32877;DHT22;19226;51.600;8.034;2023-04-29T06:50:28;11.00;99.90
32877;DHT22;19226;51.600;8.034;2023-04-29T06:53:13;11.00;99.90
32877;DHT22;19226;51.600;8.034;2023-04-29T06:55:58;11.00;99.90
32877;DHT22;19226;51.600;8.034;2023-04-29T06:58:43;11.00;99.90
32877;DHT22;19226;51.600;8.034;2023-04-29T07:01:27;11.00;99.90
32877;DHT22;19226;51.600;8.034;2023-04-29T07:04:12;10.90;99.90
32877;DHT22;19226;51.600;8.034;2023-04-29T07:06:56;10.80;99.90
32877;DHT22;19226;51.600;8.034;2023-04-29T07:09:42;10.90;99.90
32877;DHT22;19226;51.600;8.034;2023-04-29T07:12:27;10.80;99.90
32877;DHT22;19226;51.600;8.034;2023-04-29T07:15:11;10.90;99.90
32877;DHT22;19226;51.600;8.034;2023-04-29T07:17:56;10.90;99.90
32877;DHT22;19226;51.600;8.034;2023-04-29T07:20:41;10.90;99.90
32877;DHT22;19226;51.600;8.034;2023-04-29T07:23:27;11.00;99.90
32877;DHT22;19226;51.600;8.034;2023-04-29T07:26:14;11.00;99.90
32877;DHT22;19226;51.600;8.034;2023-04-29T07:29:02;11.00;99.90
32877;DHT22;19226;51.600;8.034;2023-04-29T07:31:47;11.00;99.90
32877;DHT22;19226;51.600;8.034;2023-04-29T07:34:31;11.00;99.90
32877;DHT22;19226;51.600;8.034;2023-04-29T07:37:17;11.00;99.90
32877;DHT22;19226;51.600;8.034;2023-04-29T07:40:02;11.00;99.90
32877;DHT22;19226;51.600;8.034;2023-04-29T07:42:46;11.00;99.90
32877;DHT22;19226;51.600;8.034;2023-04-29T07:45:31;11.00;99.90
32877;DHT22;19226;51.600;8.034;2023-04-29T07:48:16;11.00;99.90
32877;DHT22;19226;51.600;8.034;2023-04-29T07:51:00;11.00;99.90
32877;DHT22;19226;51.600;8.034;2023-04-29T07:53:45;11.00;99.90
32877;DHT22;19226;51.600;8.034;2023-04-29T07:56:30;11.10;99.90
32877;DHT22;19226;51.600;8.034;2023-04-29T07:59:15;11.10;99.90
32877;DHT22;19226;51.600;8.034;2023-04-29T08:01:59;11.10;99.90
32877;DHT22;19226;51.600;8.034;2023-04-29T08:04:45;11.10;99.90
32877;DHT22;19226;51.600;8.034;2023-04-29T08:07:31;11.00;99.90
32877;DHT22;19226;51.600;8.034;2023-04-29T08:10:16;11.00;99.90
32877;DHT22;19226;51.600;8.034;2023-04-29T08:13:01;11.10;99.90
32877;DHT22;19226;51.600;8.034;2023-04-29T08:15:46;11.10;99.90
32877;DHT22;19226;51.600;8.034;2023-04-29T08:18:31;11.10;99.90
32877;DHT22;19226;51.600;8.034;2023-04-29T08:21:15;11.20;99.90
32877;DHT22;19226;51.600;8.034;2023-04-29T08:24:00;11.20;99.90
32877;DHT22;19226;51.600;8.034;2023-04-29T08:26:45;11.20;99.90
32877;DHT22;19226;51.600;8.034;2023-04-29T08:29:31;11.20;99.90
32877;DHT22;19226;51.600;8.034;2023-04-29T08:32:18;11.30;99.90
32877;DHT22;19226;51.600;8.034;2023-04-29T08:35:03;11.30;99.90
32877;DHT22;19226;51.600;8.034;2023-04-29T08:37:47;11.30;99.90
32877;DHT22;19226;51.600;8.034;2023-04-29T08:40:50;11.30;99.90
32877;DHT22;19226;51.600;8.034;2023-04-29T08:43:35;11.40;99.90
32877;DHT22;19226;51.600;8.034;2023-04-29T08:46:22;11.40;99.90
32877;DHT22;19226;51.600;8.034;2023-04-29T08:49:08;11.50;99.90
32877;DHT22;19226;51.600;8.034;2023-04-29T08:51:53;11.50;99.90
32877;DHT22;19226;51.600;8.034;2023-04-29T08:54:37;11.50;99.90
32877;DHT22;19226;51.600;8.034;2023-04-29T08:57:24;11.60;99.90
32877;DHT22;19226;51.600;8.034;2023-04-29T09:00:09;11.60;99.90
32877;DHT22;19226;51.600;8.034;2023-04-29T09:02:56;11.70;99.90
32877;DHT22;19226;51.600;8.034;2023-04-29T09:05:42;11.80;99.90
32877;DHT22;19226;51.600;8.034;2023-04-29T09:08:29;11.80;99.90
32877;DHT22;19226;51.600;8.034;2023-04-29T09:11:14;11.90;99.90
32877;DHT22;19226;51.600;8.034;2023-04-29T09:14:00;11.90;99.90
32877;DHT22;19226;51.600;8.034;2023-04-29T09:16:47;12.10;99.90
32877;DHT22;19226;51.600;8.034;2023-04-29T09:19:34;12.20;99.90
32877;DHT22;19226;51.600;8.034;2023-04-29T09:22:19;12.30;99.90
32877;DHT22;19226;51.600;8.034;2023-04-29T09:25:13;12.40;99.90
32877;DHT22;19226;51.600;8.034;2023-04-29T09:27:58;12.50;99.90
32877;DHT22;19226;51.600;8.034;2023-04-29T09:30:55;12.60;99.90
32877;DHT22;19226;51.600;8.034;2023-04-29T09:33:54;12.70;99.90
32877;DHT22;19226;51.600;8.034;2023-04-29T09:36:49;12.90;99.90
32877;DHT22;19226;51.600;8.034;2023-04-29T09:39:38;12.90;99.90
32877;DHT22;19226;51.600;8.034;2023-04-29T09:42:23;13.00;99.90
32877;DHT22;19226;51.600;8.034;2023-04-29T09:45:08;13.10;99.90
32877;DHT22;19226;51.600;8.034;2023-04-29T09:48:01;13.10;99.90
32877;DHT22;19226;51.600;8.034;2023-04-29T09:50:59;13.20;99.90
32877;DHT22;19226;51.600;8.034;2023-04-29T09:53:46;13.30;99.90
32877;DHT22;19226;51.600;8.034;2023-04-29T09:56:51;13.40;99.90
32877;DHT22;19226;51.600;8.034;2023-04-29T09:59:37;13.40;99.90
32877;DHT22;19226;51.600;8.034;2023-04-29T10:02:23;13.40;99.90
32877;DHT22;19226;51.600;8.034;2023-04-29T10:05:09;13.40;99.90
32877;DHT22;19226;51.600;8.034;2023-04-29T10:07:54;13.50;99.90
32877;DHT22;19226;51.600;8.034;2023-04-29T10:10:40;13.70;99.90
32877;DHT22;19226;51.600;8.034;2023-04-29T10:13:25;13.80;99.90
32877;DHT22;19226;51.600;8.034;2023-04-29T10:19:06;13.90;99.90
32877;DHT22;19226;51.600;8.034;2023-04-29T10:21:57;13.90;99.90
32877;DHT22;19226;51.600;8.034;2023-04-29T10:24:45;14.00;99.90
32877;DHT22;19226;51.600;8.034;2023-04-29T10:27:32;14.10;99.90
32877;DHT22;19226;51.600;8.034;2023-04-29T10:30:18;14.10;99.90
32877;DHT22;19226;51.600;8.034;2023-04-29T10:33:03;14.20;99.90
32877;DHT22;19226;51.600;8.034;2023-04-29T10:35:50;14.30;99.90
32877;DHT22;19226;51.600;8.034;2023-04-29T10:38:44;14.30;99.90
32877;DHT22;19226;51.600;8.034;2023-04-29T10:41:44;14.20;99.90
32877;DHT22;19226;51.600;8.034;2023-04-29T10:44:30;14.30;99.90
32877;DHT22;19226;51.600;8.034;2023-04-29T10:47:18;14.30;99.90
32877;DHT22;19226;51.600;8.034;2023-04-29T10:50:04;14.40;99.90
32877;DHT22;19226;51.600;8.034;2023-04-29T10:52:53;14.40;99.90
32877;DHT22;19226;51.600;8.034;2023-04-29T10:55:38;14.40;99.90
32877;DHT22;19226;51.600;8.034;2023-04-29T10:58:42;14.40;99.90
32877;DHT22;19226;51.600;8.034;2023-04-29T11:01:43;14.50;99.90
32877;DHT22;19226;51.600;8.034;2023-04-29T11:04:30;14.60;99.90
32877;DHT22;19226;51.600;8.034;2023-04-29T11:07:28;14.50;99.90
32877;DHT22;19226;51.600;8.034;2023-04-29T11:10:12;14.60;99.90
32877;DHT22;19226;51.600;8.034;2023-04-29T11:13:26;14.70;99.90
32877;DHT22;19226;51.600;8.034;2023-04-29T11:16:11;14.80;99.90
32877;DHT22;19226;51.600;8.034;2023-04-29T11:19:08;15.00;99.90
32877;DHT22;19226;51.600;8.034;2023-04-29T11:24:59;15.10;99.90
32877;DHT22;19226;51.600;8.034;2023-04-29T11:27:44;15.10;99.90
32877;DHT22;19226;51.600;8.034;2023-04-29T11:30:31;15.20;99.90
32877;DHT22;19226;51.600;8.034;2023-04-29T11:33:19;15.20;99.90
32877;DHT22;19226;51.600;8.034;2023-04-29T11:36:03;15.20;99.90
32877;DHT22;19226;51.600;8.034;2023-04-29T11:38:48;15.30;99.90
32877;DHT22;19226;51.600;8.034;2023-04-29T11:41:33;15.30;99.90
32877;DHT22;19226;51.600;8.034;2023-04-29T11:44:22;15.40;99.90
32877;DHT22;19226;51.600;8.034;2023-04-29T11:47:06;15.60;99.90
32877;DHT22;19226;51.600;8.034;2023-04-29T11:49:51;15.60;99.90
32877;DHT22;19226;51.600;8.034;2023-04-29T11:52:37;15.60;99.90
32877;DHT22;19226;51.600;8.034;2023-04-29T11:55:22;15.70;99.90
32877;DHT22;19226;51.600;8.034;2023-04-29T11:58:08;15.80;99.90
32877;DHT22;19226;51.600;8.034;2023-04-29T12:00:52;15.80;99.90
32877;DHT22;19226;51.600;8.034;2023-04-29T12:03:37;15.80;99.90
32877;DHT22;19226;51.600;8.034;2023-04-29T12:06:21;15.90;99.90
32877;DHT22;19226;51.600;8.034;2023-04-29T12:09:10;15.90;99.90
32877;DHT22;19226;51.600;8.034;2023-04-29T12:11:55;15.90;99.90
32877;DHT22;19226;51.600;8.034;2023-04-29T12:14:40;15.80;99.90
32877;DHT22;19226;51.600;8.034;2023-04-29T12:17:25;15.80;99.90
32877;DHT22;19226;51.600;8.034;2023-04-29T12:20:10;15.90;99.90
32877;DHT22;19226;51.600;8.034;2023-04-29T12:22:55;15.90;99.90
32877;DHT22;19226;51.600;8.034;2023-04-29T12:25:50;15.90;99.90
32877;DHT22;19226;51.600;8.034;2023-04-29T12:28:36;16.00;99.90
32877;DHT22;19226;51.600;8.034;2023-04-29T12:31:32;16.00;99.90
32877;DHT22;19226;51.600;8.034;2023-04-29T12:34:30;16.00;99.90
32877;DHT22;19226;51.600;8.034;2023-04-29T12:37:16;16.00;99.90
32877;DHT22;19226;51.600;8.034;2023-04-29T12:40:00;16.00;99.90
32877;DHT22;19226;51.600;8.034;2023-04-29T12:42:45;16.00;99.90
32877;DHT22;19226;51.600;8.034;2023-04-29T12:45:31;16.00;99.90
32877;DHT22;19226;51.600;8.034;2023-04-29T12:48:16;16.00;99.90
32877;DHT22;19226;51.600;8.034;2023-04-29T12:51:01;15.90;99.90
32877;DHT22;19226;51.600;8.034;2023-04-29T12:53:45;15.90;99.90
32877;DHT22;19226;51.600;8.034;2023-04-29T12:56:30;15.90;99.90
32877;DHT22;19226;51.600;8.034;2023-04-29T12:59:14;15.90;99.90
32877;DHT22;19226;51.600;8.034;2023-04-29T13:02:00;15.90;99.90
32877;DHT22;19226;51.600;8.034;2023-04-29T13:04:45;15.80;99.90
32877;DHT22;19226;51.600;8.034;2023-04-29T13:07:30;15.80;99.90
32877;DHT22;19226;51.600;8.034;2023-04-29T13:10:14;15.70;99.90
32877;DHT22;19226;51.600;8.034;2023-04-29T13:12:59;15.70;99.90
32877;DHT22;19226;51.600;8.034;2023-04-29T13:15:44;15.70;99.90
32877;DHT22;19226;51.600;8.034;2023-04-29T13:18:28;15.80;99.90
32877;DHT22;19226;51.600;8.034;2023-04-29T13:21:13;15.80;99.90
32877;DHT22;19226;51.600;8.034;2023-04-29T13:23:57;15.80;99.90
32877;DHT22;19226;51.600;8.034;2023-04-29T13:26:42;15.80;99.90
32877;DHT22;19226;51.600;8.034;2023-04-29T13:29:27;15.90;99.90
32877;DHT22;19226;51.600;8.034;2023-04-29T13:32:11;16.00;99.90
32877;DHT22;19226;51.600;8.034;2023-04-29T13:34:56;16.00;99.90
32877;DHT22;19226;51.600;8.034;2023-04-29T13:37:40;16.10;99.90
32877;DHT22;19226;51.600;8.034;2023-04-29T13:40:25;16.10;99.90
32877;DHT22;19226;51.600;8.034;2023-04-29T13:43:10;16.00;99.90
32877;DHT22;19226;51.600;8.034;2023-04-29T13:45:54;16.10;99.90
32877;DHT22;19226;51.600;8.034;2023-04-29T13:48:39;16.20;99.90
32877;DHT22;19226;51.600;8.034;2023-04-29T13:51:23;16.30;99.90
32877;DHT22;19226;51.600;8.034;2023-04-29T13:54:08;16.30;99.90
32877;DHT22;19226;51.600;8.034;2023-04-29T13:56:52;16.30;99.90
32877;DHT22;19226;51.600;8.034;2023-04-29T13:59:37;16.30;99.90
32877;DHT22;19226;51.600;8.034;2023-04-29T14:02:21;16.30;99.90
32877;DHT22;19226;51.600;8.034;2023-04-29T14:05:06;16.20;99.90
32877;DHT22;19226;51.600;8.034;2023-04-29T14:07:50;16.30;99.90
32877;DHT22;19226;51.600;8.034;2023-04-29T14:10:35;16.30;99.90
32877;DHT22;19226;51.600;8.034;2023-04-29T14:13:20;16.20;99.90
32877;DHT22;19226;51.600;8.034;2023-04-29T14:16:05;16.10;99.90
32877;DHT22;19226;51.600;8.034;2023-04-29T14:18:50;16.10;99.90
32877;DHT22;19226;51.600;8.034;2023-04-29T14:21:34;16.00;99.90
32877;DHT22;19226;51.600;8.034;2023-04-29T14:24:19;16.00;99.90
32877;DHT22;19226;51.600;8.034;2023-04-29T14:27:04;15.90;99.90
32877;DHT22;19226;51.600;8.034;2023-04-29T14:29:48;15.80;99.90
32877;DHT22;19226;51.600;8.034;2023-04-29T14:32:33;15.70;99.90
32877;DHT22;19226;51.600;8.034;2023-04-29T14:35:18;15.50;99.90
32877;DHT22;19226;51.600;8.034;2023-04-29T14:38:02;15.50;99.90
32877;DHT22;19226;51.600;8.034;2023-04-29T14:40:47;15.50;99.90
32877;DHT22;19226;51.600;8.034;2023-04-29T14:43:32;15.50;99.90
32877;DHT22;19226;51.600;8.034;2023-04-29T14:46:16;15.40;99.90
32877;DHT22;19226;51.600;8.034;2023-04-29T14:49:01;15.50;99.90
32877;DHT22;19226;51.600;8.034;2023-04-29T14:51:45;15.50;99.90
32877;DHT22;19226;51.600;8.034;2023-04-29T14:54:30;15.60;99.90
32877;DHT22;19226;51.600;8.034;2023-04-29T14:57:14;15.60;99.90
32877;DHT22;19226;51.600;8.034;2023-04-29T14:59:59;15.70;99.90
32877;DHT22;19226;51.600;8.034;2023-04-29T15:02:44;15.70;99.90
32877;DHT22;19226;51.600;8.034;2023-04-29T15:05:29;15.70;99.90
32877;DHT22;19226;51.600;8.034;2023-04-29T15:08:17;15.70;99.90
32877;DHT22;19226;51.600;8.034;2023-04-29T15:11:02;15.70;99.90
32877;DHT22;19226;51.600;8.034;2023-04-29T15:13:50;15.70;99.90
32877;DHT22;19226;51.600;8.034;2023-04-29T15:16:35;15.80;99.90
32877;DHT22;19226;51.600;8.034;2023-04-29T15:19:19;15.70;99.90
32877;DHT22;19226;51.600;8.034;2023-04-29T15:22:03;15.60;99.90
32877;DHT22;19226;51.600;8.034;2023-04-29T15:24:48;15.60;99.90
32877;DHT22;19226;51.600;8.034;2023-04-29T15:27:36;15.60;99.90
32877;DHT22;19226;51.600;8.034;2023-04-29T15:30:25;15.60;99.90
32877;DHT22;19226;51.600;8.034;2023-04-29T15:33:10;15.60;99.90
32877;DHT22;19226;51.600;8.034;2023-04-29T15:35:55;15.60;99.90
32877;DHT22;19226;51.600;8.034;2023-04-29T15:38:40;15.70;99.90
32877;DHT22;19226;51.600;8.034;2023-04-29T15:41:25;15.70;99.90
32877;DHT22;19226;51.600;8.034;2023-04-29T15:44:09;15.70;99.90
32877;DHT22;19226;51.600;8.034;2023-04-29T15:46:54;15.70;99.90
32877;DHT22;19226;51.600;8.034;2023-04-29T15:49:41;15.80;99.90
32877;DHT22;19226;51.600;8.034;2023-04-29T15:52:26;15.80;99.90
32877;DHT22;19226;51.600;8.034;2023-04-29T15:55:10;15.80;99.90
32877;DHT22;19226;51.600;8.034;2023-04-29T15:57:55;15.90;99.90
32877;DHT22;19226;51.600;8.034;2023-04-29T16:00:39;15.80;99.90
32877;DHT22;19226;51.600;8.034;2023-04-29T16:03:24;15.80;99.90
32877;DHT22;19226;51.600;8.034;2023-04-29T16:06:08;15.80;99.90
32877;DHT22;19226;51.600;8.034;2023-04-29T16:08:53;15.80;99.90
32877;DHT22;19226;51.600;8.034;2023-04-29T16:11:40;15.80;99.90
32877;DHT22;19226;51.600;8.034;2023-04-29T16:14:25;15.80;99.90
32877;DHT22;19226;51.600;8.034;2023-04-29T16:17:09;15.90;99.90
32877;DHT22;19226;51.600;8.034;2023-04-29T16:19:54;15.80;99.90
32877;DHT22;19226;51.600;8.034;2023-04-29T16:22:39;15.90;99.90
32877;DHT22;19226;51.600;8.034;2023-04-29T16:25:23;15.90;99.90
32877;DHT22;19226;51.600;8.034;2023-04-29T16:28:08;15.90;99.90
32877;DHT22;19226;51.600;8.034;2023-04-29T16:30:52;15.80;99.90
32877;DHT22;19226;51.600;8.034;2023-04-29T16:33:38;15.80;99.90
32877;DHT22;19226;51.600;8.034;2023-04-29T16:36:23;15.80;99.90
32877;DHT22;19226;51.600;8.034;2023-04-29T16:39:08;15.80;99.90
32877;DHT22;19226;51.600;8.034;2023-04-29T16:41:52;15.80;99.90
32877;DHT22;19226;51.600;8.034;2023-04-29T16:44:37;15.80;99.90
32877;DHT22;19226;51.600;8.034;2023-04-29T16:47:22;15.80;99.90
32877;DHT22;19226;51.600;8.034;2023-04-29T16:50:08;15.80;99.90
32877;DHT22;19226;51.600;8.034;2023-04-29T16:52:53;15.70;99.90
32877;DHT22;19226;51.600;8.034;2023-04-29T16:55:38;15.70;99.90
32877;DHT22;19226;51.600;8.034;2023-04-29T16:58:22;15.70;99.90
32877;DHT22;19226;51.600;8.034;2023-04-29T17:01:07;15.80;99.90
32877;DHT22;19226;51.600;8.034;2023-04-29T17:03:51;15.80;99.90
32877;DHT22;19226;51.600;8.034;2023-04-29T17:06:36;15.80;99.90
32877;DHT22;19226;51.600;8.034;2023-04-29T17:09:22;15.80;99.90
32877;DHT22;19226;51.600;8.034;2023-04-29T17:12:08;15.80;99.90
32877;DHT22;19226;51.600;8.034;2023-04-29T17:14:53;15.70;99.90
32877;DHT22;19226;51.600;8.034;2023-04-29T17:17:37;15.70;99.90
32877;DHT22;19226;51.600;8.034;2023-04-29T17:20:22;15.70;99.90
32877;DHT22;19226;51.600;8.034;2023-04-29T17:23:07;15.70;99.90
32877;DHT22;19226;51.600;8.034;2023-04-29T17:25:51;15.70;99.90
32877;DHT22;19226;51.600;8.034;2023-04-29T17:28:37;15.60;99.90
32877;DHT22;19226;51.600;8.034;2023-04-29T17:31:22;15.60;99.90
32877;DHT22;19226;51.600;8.034;2023-04-29T17:34:09;15.60;99.90
32877;DHT22;19226;51.600;8.034;2023-04-29T17:37:01;15.60;99.90
32877;DHT22;19226;51.600;8.034;2023-04-29T17:39:45;15.50;99.90
32877;DHT22;19226;51.600;8.034;2023-04-29T17:42:30;15.50;99.90
32877;DHT22;19226;51.600;8.034;2023-04-29T17:45:14;15.50;99.90
32877;DHT22;19226;51.600;8.034;2023-04-29T17:48:00;15.50;99.90